sensor_id;sensor_type;location;lat;lon;timestamp;P1;durP1;ratioP1;P2;durP2;ratioP2
24635;SDS011;12772;49.794;10.024;2024-03-08T00:03:19;18.40;;;13.85;;
24635;SDS011;12772;49.794;10.024;2024-03-08T00:07:21;18.80;;;13.73;;
24635;SDS011;12772;49.794;10.024;2024-03-08T00:11:23;18.42;;;14.25;;
24635;SDS011;12772;49.794;10.024;2024-03-08T00:15:26;16.67;;;13.25;;
24635;SDS011;12772;49.794;10.024;2024-03-08T00:19:29;16.17;;;13.57;;
24635;SDS011;12772;49.794;10.024;2024-03-08T00:23:31;17.42;;;14.18;;
24635;SDS011;12772;49.794;10.024;2024-03-08T00:27:33;19.48;;;14.65;;
24635;SDS011;12772;49.794;10.024;2024-03-08T00:31:36;19.20;;;14.68;;
24635;SDS011;12772;49.794;10.024;2024-03-08T00:35:38;18.38;;;13.65;;
24635;SDS011;12772;49.794;10.024;2024-03-08T00:39:40;19.52;;;14.15;;
24635;SDS011;12772;49.794;10.024;2024-03-08T00:43:42;17.90;;;13.27;;
24635;SDS011;12772;49.794;10.024;2024-03-08T00:47:44;16.58;;;12.93;;
24635;SDS011;12772;49.794;10.024;2024-03-08T00:51:46;21.77;;;14.93;;
24635;SDS011;12772;49.794;10.024;2024-03-08T00:55:48;19.27;;;14.18;;
24635;SDS011;12772;49.794;10.024;2024-03-08T00:59:50;20.42;;;15.35;;
24635;SDS011;12772;49.794;10.024;2024-03-08T01:03:53;17.15;;;12.75;;
24635;SDS011;12772;49.794;10.024;2024-03-08T01:07:55;20.77;;;14.52;;
24635;SDS011;12772;49.794;10.024;2024-03-08T01:11:57;17.08;;;13.35;;
24635;SDS011;12772;49.794;10.024;2024-03-08T01:15:59;16.80;;;13.48;;
24635;SDS011;12772;49.794;10.024;2024-03-08T01:20:01;17.90;;;14.32;;
24635;SDS011;12772;49.794;10.024;2024-03-08T01:24:03;18.73;;;14.00;;
24635;SDS011;12772;49.794;10.024;2024-03-08T01:28:05;18.02;;;13.38;;
24635;SDS011;12772;49.794;10.024;2024-03-08T01:32:07;20.00;;;14.73;;
24635;SDS011;12772;49.794;10.024;2024-03-08T01:36:09;18.85;;;14.63;;
24635;SDS011;12772;49.794;10.024;2024-03-08T01:40:11;18.88;;;14.25;;
24635;SDS011;12772;49.794;10.024;2024-03-08T01:44:13;18.08;;;14.48;;
24635;SDS011;12772;49.794;10.024;2024-03-08T01:48:18;17.58;;;14.55;;
24635;SDS011;12772;49.794;10.024;2024-03-08T01:52:22;18.98;;;14.27;;
24635;SDS011;12772;49.794;10.024;2024-03-08T01:56:25;18.35;;;13.85;;
24635;SDS011;12772;49.794;10.024;2024-03-08T02:00:27;16.13;;;12.85;;
24635;SDS011;12772;49.794;10.024;2024-03-08T02:04:30;19.38;;;14.35;;
24635;SDS011;12772;49.794;10.024;2024-03-08T02:08:32;22.05;;;15.10;;
24635;SDS011;12772;49.794;10.024;2024-03-08T02:12:35;18.15;;;13.48;;
24635;SDS011;12772;49.794;10.024;2024-03-08T02:16:38;18.60;;;13.35;;
24635;SDS011;12772;49.794;10.024;2024-03-08T02:20:40;17.50;;;13.93;;
24635;SDS011;12772;49.794;10.024;2024-03-08T02:24:42;17.65;;;14.05;;
24635;SDS011;12772;49.794;10.024;2024-03-08T02:28:45;18.77;;;13.63;;
24635;SDS011;12772;49.794;10.024;2024-03-08T02:32:47;14.82;;;12.45;;
24635;SDS011;12772;49.794;10.024;2024-03-08T02:36:49;18.25;;;14.05;;
24635;SDS011;12772;49.794;10.024;2024-03-08T02:40:52;19.50;;;15.00;;
24635;SDS011;12772;49.794;10.024;2024-03-08T02:44:55;18.00;;;14.40;;
24635;SDS011;12772;49.794;10.024;2024-03-08T02:48:57;15.88;;;13.13;;
24635;SDS011;12772;49.794;10.024;2024-03-08T02:52:59;17.63;;;14.63;;
24635;SDS011;12772;49.794;10.024;2024-03-08T02:57:01;18.50;;;13.55;;
24635;SDS011;12772;49.794;10.024;2024-03-08T03:01:04;16.75;;;13.18;;
24635;SDS011;12772;49.794;10.024;2024-03-08T03:05:06;16.33;;;13.20;;
24635;SDS011;12772;49.794;10.024;2024-03-08T03:09:10;16.80;;;12.63;;
24635;SDS011;12772;49.794;10.024;2024-03-08T03:13:12;15.85;;;12.70;;
24635;SDS011;12772;49.794;10.024;2024-03-08T03:17:14;19.73;;;13.82;;
24635;SDS011;12772;49.794;10.024;2024-03-08T03:21:16;18.15;;;13.60;;
24635;SDS011;12772;49.794;10.024;2024-03-08T03:25:19;22.23;;;14.95;;
24635;SDS011;12772;49.794;10.024;2024-03-08T03:29:25;20.70;;;14.63;;
24635;SDS011;12772;49.794;10.024;2024-03-08T03:33:27;18.05;;;14.43;;
24635;SDS011;12772;49.794;10.024;2024-03-08T03:37:29;20.17;;;14.98;;
24635;SDS011;12772;49.794;10.024;2024-03-08T03:41:31;18.77;;;14.48;;
24635;SDS011;12772;49.794;10.024;2024-03-08T03:45:33;19.13;;;15.38;;
24635;SDS011;12772;49.794;10.024;2024-03-08T03:49:35;17.88;;;14.85;;
24635;SDS011;12772;49.794;10.024;2024-03-08T03:53:37;20.90;;;14.70;;
24635;SDS011;12772;49.794;10.024;2024-03-08T03:57:39;19.25;;;15.13;;
24635;SDS011;12772;49.794;10.024;2024-03-08T04:01:42;16.70;;;14.25;;
24635;SDS011;12772;49.794;10.024;2024-03-08T04:05:45;16.42;;;14.38;;
24635;SDS011;12772;49.794;10.024;2024-03-08T04:09:48;16.75;;;13.95;;
24635;SDS011;12772;49.794;10.024;2024-03-08T04:13:50;18.23;;;14.70;;
24635;SDS011;12772;49.794;10.024;2024-03-08T04:17:53;21.77;;;16.20;;
24635;SDS011;12772;49.794;10.024;2024-03-08T04:21:55;20.83;;;14.73;;
24635;SDS011;12772;49.794;10.024;2024-03-08T04:25:57;23.00;;;15.95;;
24635;SDS011;12772;49.794;10.024;2024-03-08T04:29:59;24.23;;;15.48;;
24635;SDS011;12772;49.794;10.024;2024-03-08T04:34:02;23.42;;;15.25;;
24635;SDS011;12772;49.794;10.024;2024-03-08T04:38:05;23.85;;;16.00;;
24635;SDS011;12772;49.794;10.024;2024-03-08T04:42:07;22.30;;;15.85;;
24635;SDS011;12772;49.794;10.024;2024-03-08T04:46:11;22.73;;;15.70;;
24635;SDS011;12772;49.794;10.024;2024-03-08T04:50:13;24.08;;;17.23;;
24635;SDS011;12772;49.794;10.024;2024-03-08T04:54:15;25.65;;;17.50;;
24635;SDS011;12772;49.794;10.024;2024-03-08T04:58:17;23.20;;;16.73;;
24635;SDS011;12772;49.794;10.024;2024-03-08T05:02:19;23.60;;;16.77;;
24635;SDS011;12772;49.794;10.024;2024-03-08T05:06:23;38.70;;;22.30;;
24635;SDS011;12772;49.794;10.024;2024-03-08T05:10:25;24.20;;;16.95;;
24635;SDS011;12772;49.794;10.024;2024-03-08T05:14:27;22.02;;;15.10;;
24635;SDS011;12772;49.794;10.024;2024-03-08T05:18:29;28.30;;;17.88;;
24635;SDS011;12772;49.794;10.024;2024-03-08T05:22:32;23.23;;;16.13;;
24635;SDS011;12772;49.794;10.024;2024-03-08T05:26:34;35.83;;;22.58;;
24635;SDS011;12772;49.794;10.024;2024-03-08T05:30:38;23.67;;;16.63;;
24635;SDS011;12772;49.794;10.024;2024-03-08T05:34:40;23.27;;;17.17;;
24635;SDS011;12772;49.794;10.024;2024-03-08T05:38:42;23.67;;;17.50;;
24635;SDS011;12772;49.794;10.024;2024-03-08T05:42:45;21.38;;;16.77;;
24635;SDS011;12772;49.794;10.024;2024-03-08T05:46:47;23.13;;;16.50;;
24635;SDS011;12772;49.794;10.024;2024-03-08T05:50:49;24.45;;;17.20;;
24635;SDS011;12772;49.794;10.024;2024-03-08T05:54:51;22.33;;;16.48;;
24635;SDS011;12772;49.794;10.024;2024-03-08T05:58:53;26.83;;;18.05;;
24635;SDS011;12772;49.794;10.024;2024-03-08T06:02:55;23.13;;;16.42;;
24635;SDS011;12772;49.794;10.024;2024-03-08T06:06:59;21.42;;;16.42;;
24635;SDS011;12772;49.794;10.024;2024-03-08T06:11:01;23.00;;;16.38;;
24635;SDS011;12772;49.794;10.024;2024-03-08T06:15:03;22.42;;;17.42;;
24635;SDS011;12772;49.794;10.024;2024-03-08T06:19:05;22.95;;;16.98;;
24635;SDS011;12772;49.794;10.024;2024-03-08T06:23:08;23.90;;;17.00;;
24635;SDS011;12772;49.794;10.024;2024-03-08T06:27:10;23.08;;;16.50;;
24635;SDS011;12772;49.794;10.024;2024-03-08T06:31:12;23.40;;;15.85;;
24635;SDS011;12772;49.794;10.024;2024-03-08T06:35:15;21.20;;;16.30;;
24635;SDS011;12772;49.794;10.024;2024-03-08T06:39:17;24.20;;;18.10;;
24635;SDS011;12772;49.794;10.024;2024-03-08T06:43:19;23.13;;;16.95;;
24635;SDS011;12772;49.794;10.024;2024-03-08T06:47:21;24.52;;;17.08;;
24635;SDS011;12772;49.794;10.024;2024-03-08T06:51:26;27.85;;;18.48;;
24635;SDS011;12772;49.794;10.024;2024-03-08T06:55:28;26.10;;;18.45;;
24635;SDS011;12772;49.794;10.024;2024-03-08T06:59:33;21.92;;;15.90;;
24635;SDS011;12772;49.794;10.024;2024-03-08T07:03:36;24.67;;;18.25;;
24635;SDS011;12772;49.794;10.024;2024-03-08T07:07:38;24.05;;;17.25;;
24635;SDS011;12772;49.794;10.024;2024-03-08T07:11:41;21.92;;;16.15;;
24635;SDS011;12772;49.794;10.024;2024-03-08T07:15:44;22.48;;;16.80;;
24635;SDS011;12772;49.794;10.024;2024-03-08T07:19:46;23.45;;;16.88;;
24635;SDS011;12772;49.794;10.024;2024-03-08T07:23:48;20.88;;;16.50;;
24635;SDS011;12772;49.794;10.024;2024-03-08T07:28:14;21.88;;;17.98;;
24635;SDS011;12772;49.794;10.024;2024-03-08T07:32:16;23.00;;;17.98;;
24635;SDS011;12772;49.794;10.024;2024-03-08T07:36:21;20.77;;;16.20;;
24635;SDS011;12772;49.794;10.024;2024-03-08T07:40:23;25.23;;;17.92;;
24635;SDS011;12772;49.794;10.024;2024-03-08T07:44:26;25.25;;;17.40;;
24635;SDS011;12772;49.794;10.024;2024-03-08T07:48:28;22.85;;;16.85;;
24635;SDS011;12772;49.794;10.024;2024-03-08T07:52:31;22.45;;;16.80;;
24635;SDS011;12772;49.794;10.024;2024-03-08T07:56:34;22.38;;;17.85;;
24635;SDS011;12772;49.794;10.024;2024-03-08T08:00:36;27.30;;;20.20;;
24635;SDS011;12772;49.794;10.024;2024-03-08T08:04:38;24.00;;;18.20;;
24635;SDS011;12772;49.794;10.024;2024-03-08T08:08:43;27.50;;;18.60;;
24635;SDS011;12772;49.794;10.024;2024-03-08T08:12:46;23.92;;;17.90;;
24635;SDS011;12772;49.794;10.024;2024-03-08T08:16:48;22.35;;;18.23;;
24635;SDS011;12772;49.794;10.024;2024-03-08T08:20:53;24.92;;;18.67;;
24635;SDS011;12772;49.794;10.024;2024-03-08T08:24:55;24.85;;;18.02;;
24635;SDS011;12772;49.794;10.024;2024-03-08T08:28:57;24.80;;;18.48;;
24635;SDS011;12772;49.794;10.024;2024-03-08T08:33:00;35.47;;;18.45;;
24635;SDS011;12772;49.794;10.024;2024-03-08T08:37:02;25.27;;;18.35;;
24635;SDS011;12772;49.794;10.024;2024-03-08T08:41:04;25.15;;;18.70;;
24635;SDS011;12772;49.794;10.024;2024-03-08T08:45:06;24.80;;;18.02;;
24635;SDS011;12772;49.794;10.024;2024-03-08T08:49:09;24.15;;;17.08;;
24635;SDS011;12772;49.794;10.024;2024-03-08T08:53:14;23.30;;;17.83;;
24635;SDS011;12772;49.794;10.024;2024-03-08T08:57:17;22.30;;;16.02;;
24635;SDS011;12772;49.794;10.024;2024-03-08T09:01:20;21.60;;;17.38;;
24635;SDS011;12772;49.794;10.024;2024-03-08T09:05:22;22.70;;;16.42;;
24635;SDS011;12772;49.794;10.024;2024-03-08T09:09:24;25.20;;;16.55;;
24635;SDS011;12772;49.794;10.024;2024-03-08T09:13:26;21.25;;;16.80;;
24635;SDS011;12772;49.794;10.024;2024-03-08T09:17:29;21.42;;;14.77;;
24635;SDS011;12772;49.794;10.024;2024-03-08T09:21:31;21.88;;;15.10;;
24635;SDS011;12772;49.794;10.024;2024-03-08T09:25:33;22.05;;;15.75;;
24635;SDS011;12772;49.794;10.024;2024-03-08T09:29:35;19.05;;;15.02;;
24635;SDS011;12772;49.794;10.024;2024-03-08T09:33:37;19.58;;;14.25;;
24635;SDS011;12772;49.794;10.024;2024-03-08T09:37:39;18.25;;;13.98;;
24635;SDS011;12772;49.794;10.024;2024-03-08T09:41:42;19.85;;;14.70;;
24635;SDS011;12772;49.794;10.024;2024-03-08T09:45:45;16.10;;;13.95;;
24635;SDS011;12772;49.794;10.024;2024-03-08T09:49:51;16.85;;;13.32;;
24635;SDS011;12772;49.794;10.024;2024-03-08T09:53:53;17.08;;;13.82;;
24635;SDS011;12772;49.794;10.024;2024-03-08T09:57:55;15.80;;;13.80;;
24635;SDS011;12772;49.794;10.024;2024-03-08T10:02:27;17.65;;;13.45;;
24635;SDS011;12772;49.794;10.024;2024-03-08T10:06:30;17.88;;;13.95;;
24635;SDS011;12772;49.794;10.024;2024-03-08T10:10:35;16.67;;;13.68;;
24635;SDS011;12772;49.794;10.024;2024-03-08T10:14:38;16.80;;;13.48;;
24635;SDS011;12772;49.794;10.024;2024-03-08T10:18:42;17.90;;;13.70;;
24635;SDS011;12772;49.794;10.024;2024-03-08T10:22:46;17.30;;;14.23;;
24635;SDS011;12772;49.794;10.024;2024-03-08T10:26:48;16.80;;;13.10;;
24635;SDS011;12772;49.794;10.024;2024-03-08T10:30:53;16.25;;;13.48;;
24635;SDS011;12772;49.794;10.024;2024-03-08T10:34:57;17.17;;;13.90;;
24635;SDS011;12772;49.794;10.024;2024-03-08T10:38:59;18.10;;;15.57;;
24635;SDS011;12772;49.794;10.024;2024-03-08T10:43:03;16.20;;;12.90;;
24635;SDS011;12772;49.794;10.024;2024-03-08T10:47:27;16.65;;;13.50;;
24635;SDS011;12772;49.794;10.024;2024-03-08T10:51:30;17.15;;;13.70;;
24635;SDS011;12772;49.794;10.024;2024-03-08T10:55:33;14.60;;;12.85;;
24635;SDS011;12772;49.794;10.024;2024-03-08T10:59:38;16.35;;;13.23;;
24635;SDS011;12772;49.794;10.024;2024-03-08T11:03:45;15.13;;;12.65;;
24635;SDS011;12772;49.794;10.024;2024-03-08T11:07:49;15.35;;;12.38;;
24635;SDS011;12772;49.794;10.024;2024-03-08T11:11:52;15.23;;;13.32;;
24635;SDS011;12772;49.794;10.024;2024-03-08T11:20:26;15.98;;;14.15;;
24635;SDS011;12772;49.794;10.024;2024-03-08T11:24:38;15.10;;;13.15;;
24635;SDS011;12772;49.794;10.024;2024-03-08T11:28:45;15.98;;;13.30;;
24635;SDS011;12772;49.794;10.024;2024-03-08T11:32:47;15.30;;;13.25;;
24635;SDS011;12772;49.794;10.024;2024-03-08T11:36:49;18.35;;;14.63;;
24635;SDS011;12772;49.794;10.024;2024-03-08T11:40:57;16.05;;;13.80;;
24635;SDS011;12772;49.794;10.024;2024-03-08T11:44:59;14.80;;;12.85;;
24635;SDS011;12772;49.794;10.024;2024-03-08T11:49:03;18.58;;;14.73;;
24635;SDS011;12772;49.794;10.024;2024-03-08T11:53:06;14.95;;;12.88;;
24635;SDS011;12772;49.794;10.024;2024-03-08T11:57:08;15.15;;;12.40;;
24635;SDS011;12772;49.794;10.024;2024-03-08T12:01:11;15.13;;;12.57;;
24635;SDS011;12772;49.794;10.024;2024-03-08T12:05:13;14.70;;;12.70;;
24635;SDS011;12772;49.794;10.024;2024-03-08T12:09:16;14.95;;;12.73;;
24635;SDS011;12772;49.794;10.024;2024-03-08T12:13:19;14.43;;;11.85;;
24635;SDS011;12772;49.794;10.024;2024-03-08T12:17:21;13.63;;;11.82;;
24635;SDS011;12772;49.794;10.024;2024-03-08T12:21:25;13.25;;;11.52;;
24635;SDS011;12772;49.794;10.024;2024-03-08T12:25:30;13.95;;;11.90;;
24635;SDS011;12772;49.794;10.024;2024-03-08T12:29:37;12.85;;;11.38;;
24635;SDS011;12772;49.794;10.024;2024-03-08T12:37:58;13.30;;;11.10;;
24635;SDS011;12772;49.794;10.024;2024-03-08T12:42:01;15.23;;;12.13;;
24635;SDS011;12772;49.794;10.024;2024-03-08T12:46:03;15.05;;;11.80;;
24635;SDS011;12772;49.794;10.024;2024-03-08T12:50:06;14.23;;;11.70;;
24635;SDS011;12772;49.794;10.024;2024-03-08T12:54:09;12.18;;;10.93;;
24635;SDS011;12772;49.794;10.024;2024-03-08T12:58:11;13.30;;;11.93;;
24635;SDS011;12772;49.794;10.024;2024-03-08T13:02:13;13.02;;;11.68;;
24635;SDS011;12772;49.794;10.024;2024-03-08T13:06:17;12.50;;;11.20;;
24635;SDS011;12772;49.794;10.024;2024-03-08T13:10:20;12.30;;;10.98;;
24635;SDS011;12772;49.794;10.024;2024-03-08T13:14:23;11.77;;;10.57;;
24635;SDS011;12772;49.794;10.024;2024-03-08T13:18:25;14.32;;;11.35;;
24635;SDS011;12772;49.794;10.024;2024-03-08T13:22:28;12.43;;;10.52;;
24635;SDS011;12772;49.794;10.024;2024-03-08T13:26:30;12.30;;;10.10;;
24635;SDS011;12772;49.794;10.024;2024-03-08T13:30:33;11.52;;;9.63;;
24635;SDS011;12772;49.794;10.024;2024-03-08T13:34:35;10.85;;;8.73;;
24635;SDS011;12772;49.794;10.024;2024-03-08T13:38:37;10.85;;;9.73;;
24635;SDS011;12772;49.794;10.024;2024-03-08T13:42:40;11.30;;;9.68;;
24635;SDS011;12772;49.794;10.024;2024-03-08T13:46:43;12.10;;;9.20;;
24635;SDS011;12772;49.794;10.024;2024-03-08T13:50:45;9.93;;;8.40;;
24635;SDS011;12772;49.794;10.024;2024-03-08T13:54:47;10.40;;;9.23;;
24635;SDS011;12772;49.794;10.024;2024-03-08T13:58:50;10.10;;;9.00;;
24635;SDS011;12772;49.794;10.024;2024-03-08T14:02:52;11.48;;;9.23;;
24635;SDS011;12772;49.794;10.024;2024-03-08T14:06:55;9.63;;;8.10;;
24635;SDS011;12772;49.794;10.024;2024-03-08T14:11:01;10.13;;;8.85;;
24635;SDS011;12772;49.794;10.024;2024-03-08T14:15:11;9.20;;;8.30;;
24635;SDS011;12772;49.794;10.024;2024-03-08T14:19:13;10.55;;;8.43;;
24635;SDS011;12772;49.794;10.024;2024-03-08T14:23:15;12.35;;;9.10;;
24635;SDS011;12772;49.794;10.024;2024-03-08T14:27:17;9.55;;;8.45;;
24635;SDS011;12772;49.794;10.024;2024-03-08T14:31:20;10.32;;;8.57;;
24635;SDS011;12772;49.794;10.024;2024-03-08T14:35:26;10.85;;;8.85;;
24635;SDS011;12772;49.794;10.024;2024-03-08T14:39:29;11.02;;;9.73;;
24635;SDS011;12772;49.794;10.024;2024-03-08T14:43:33;10.93;;;9.27;;
24635;SDS011;12772;49.794;10.024;2024-03-08T14:47:35;9.35;;;8.38;;
24635;SDS011;12772;49.794;10.024;2024-03-08T14:51:38;11.13;;;8.57;;
24635;SDS011;12772;49.794;10.024;2024-03-08T14:55:40;9.65;;;8.65;;
24635;SDS011;12772;49.794;10.024;2024-03-08T14:59:44;11.75;;;9.13;;
24635;SDS011;12772;49.794;10.024;2024-03-08T15:03:46;13.18;;;9.57;;
24635;SDS011;12772;49.794;10.024;2024-03-08T15:07:48;11.07;;;9.10;;
24635;SDS011;12772;49.794;10.024;2024-03-08T15:11:50;10.50;;;8.40;;
24635;SDS011;12772;49.794;10.024;2024-03-08T15:15:53;9.52;;;8.13;;
24635;SDS011;12772;49.794;10.024;2024-03-08T15:19:56;9.55;;;8.23;;
24635;SDS011;12772;49.794;10.024;2024-03-08T15:23:57;9.43;;;8.38;;
24635;SDS011;12772;49.794;10.024;2024-03-08T15:28:00;11.68;;;9.10;;
24635;SDS011;12772;49.794;10.024;2024-03-08T15:32:04;9.48;;;8.48;;
24635;SDS011;12772;49.794;10.024;2024-03-08T15:36:07;9.88;;;8.85;;
24635;SDS011;12772;49.794;10.024;2024-03-08T15:40:10;11.77;;;9.13;;
24635;SDS011;12772;49.794;10.024;2024-03-08T15:44:21;9.45;;;8.50;;
24635;SDS011;12772;49.794;10.024;2024-03-08T15:48:23;10.60;;;8.68;;
24635;SDS011;12772;49.794;10.024;2024-03-08T15:52:25;9.60;;;8.57;;
24635;SDS011;12772;49.794;10.024;2024-03-08T15:56:27;9.63;;;8.00;;
24635;SDS011;12772;49.794;10.024;2024-03-08T16:00:29;10.85;;;8.65;;
24635;SDS011;12772;49.794;10.024;2024-03-08T16:04:36;9.82;;;8.82;;
24635;SDS011;12772;49.794;10.024;2024-03-08T16:08:38;11.48;;;9.88;;
24635;SDS011;12772;49.794;10.024;2024-03-08T16:12:40;11.43;;;9.45;;
24635;SDS011;12772;49.794;10.024;2024-03-08T16:16:43;11.45;;;9.68;;
24635;SDS011;12772;49.794;10.024;2024-03-08T16:20:46;10.38;;;8.63;;
24635;SDS011;12772;49.794;10.024;2024-03-08T16:24:48;10.52;;;8.88;;
24635;SDS011;12772;49.794;10.024;2024-03-08T16:28:51;11.60;;;9.82;;
24635;SDS011;12772;49.794;10.024;2024-03-08T16:32:54;11.45;;;9.50;;
24635;SDS011;12772;49.794;10.024;2024-03-08T16:36:56;11.10;;;8.88;;
24635;SDS011;12772;49.794;10.024;2024-03-08T16:40:58;12.00;;;10.13;;
24635;SDS011;12772;49.794;10.024;2024-03-08T16:45:01;12.10;;;10.35;;
24635;SDS011;12772;49.794;10.024;2024-03-08T16:49:04;10.95;;;9.48;;
24635;SDS011;12772;49.794;10.024;2024-03-08T16:53:07;12.70;;;9.30;;
24635;SDS011;12772;49.794;10.024;2024-03-08T16:57:10;10.88;;;8.90;;
24635;SDS011;12772;49.794;10.024;2024-03-08T17:01:14;17.45;;;9.75;;
24635;SDS011;12772;49.794;10.024;2024-03-08T17:05:16;11.43;;;9.75;;
24635;SDS011;12772;49.794;10.024;2024-03-08T17:09:19;11.25;;;9.50;;
24635;SDS011;12772;49.794;10.024;2024-03-08T17:13:22;10.10;;;8.82;;
24635;SDS011;12772;49.794;10.024;2024-03-08T17:17:24;10.52;;;9.02;;
24635;SDS011;12772;49.794;10.024;2024-03-08T17:21:26;11.95;;;8.70;;
24635;SDS011;12772;49.794;10.024;2024-03-08T17:25:29;9.00;;;8.10;;
24635;SDS011;12772;49.794;10.024;2024-03-08T17:29:32;9.38;;;8.05;;
24635;SDS011;12772;49.794;10.024;2024-03-08T17:33:34;9.10;;;8.15;;
24635;SDS011;12772;49.794;10.024;2024-03-08T17:37:37;9.20;;;8.20;;
24635;SDS011;12772;49.794;10.024;2024-03-08T17:41:40;9.82;;;8.15;;
24635;SDS011;12772;49.794;10.024;2024-03-08T17:45:42;9.68;;;8.63;;
24635;SDS011;12772;49.794;10.024;2024-03-08T17:49:45;10.57;;;8.15;;
24635;SDS011;12772;49.794;10.024;2024-03-08T17:53:47;10.48;;;8.35;;
24635;SDS011;12772;49.794;10.024;2024-03-08T17:57:51;12.02;;;8.77;;
24635;SDS011;12772;49.794;10.024;2024-03-08T18:01:55;10.90;;;8.50;;
24635;SDS011;12772;49.794;10.024;2024-03-08T18:05:57;11.32;;;8.25;;
24635;SDS011;12772;49.794;10.024;2024-03-08T18:09:59;10.25;;;8.73;;
24635;SDS011;12772;49.794;10.024;2024-03-08T18:14:02;11.27;;;8.60;;
24635;SDS011;12772;49.794;10.024;2024-03-08T18:18:05;12.88;;;9.15;;
24635;SDS011;12772;49.794;10.024;2024-03-08T18:22:09;9.60;;;8.60;;
24635;SDS011;12772;49.794;10.024;2024-03-08T18:26:12;10.18;;;8.75;;
24635;SDS011;12772;49.794;10.024;2024-03-08T18:30:14;11.90;;;8.73;;
24635;SDS011;12772;49.794;10.024;2024-03-08T18:34:18;10.50;;;8.55;;
24635;SDS011;12772;49.794;10.024;2024-03-08T18:38:20;11.85;;;9.75;;
24635;SDS011;12772;49.794;10.024;2024-03-08T18:42:23;12.18;;;9.25;;
24635;SDS011;12772;49.794;10.024;2024-03-08T18:46:25;11.77;;;9.32;;
24635;SDS011;12772;49.794;10.024;2024-03-08T18:50:27;10.07;;;8.48;;
24635;SDS011;12772;49.794;10.024;2024-03-08T18:54:30;10.60;;;9.07;;
24635;SDS011;12772;49.794;10.024;2024-03-08T18:58:34;12.32;;;9.30;;
24635;SDS011;12772;49.794;10.024;2024-03-08T19:02:36;11.25;;;9.23;;
24635;SDS011;12772;49.794;10.024;2024-03-08T19:06:38;15.00;;;9.50;;
24635;SDS011;12772;49.794;10.024;2024-03-08T19:10:40;12.45;;;10.15;;
24635;SDS011;12772;49.794;10.024;2024-03-08T19:14:42;12.10;;;9.43;;
24635;SDS011;12772;49.794;10.024;2024-03-08T19:18:44;11.27;;;9.82;;
24635;SDS011;12772;49.794;10.024;2024-03-08T19:22:48;10.38;;;8.98;;
24635;SDS011;12772;49.794;10.024;2024-03-08T19:26:51;12.75;;;10.45;;
24635;SDS011;12772;49.794;10.024;2024-03-08T19:30:54;12.35;;;10.90;;
24635;SDS011;12772;49.794;10.024;2024-03-08T19:34:56;12.23;;;9.65;;
24635;SDS011;12772;49.794;10.024;2024-03-08T19:38:59;11.95;;;9.90;;
24635;SDS011;12772;49.794;10.024;2024-03-08T19:43:03;12.88;;;9.93;;
24635;SDS011;12772;49.794;10.024;2024-03-08T19:47:07;12.93;;;10.60;;
24635;SDS011;12772;49.794;10.024;2024-03-08T19:51:12;14.13;;;9.82;;
24635;SDS011;12772;49.794;10.024;2024-03-08T19:55:18;16.08;;;10.18;;
24635;SDS011;12772;49.794;10.024;2024-03-08T19:59:20;12.10;;;9.73;;
24635;SDS011;12772;49.794;10.024;2024-03-08T20:03:25;15.93;;;10.55;;
24635;SDS011;12772;49.794;10.024;2024-03-08T20:07:29;10.32;;;9.18;;
24635;SDS011;12772;49.794;10.024;2024-03-08T20:11:31;14.13;;;11.10;;
24635;SDS011;12772;49.794;10.024;2024-03-08T20:15:34;11.80;;;10.20;;
24635;SDS011;12772;49.794;10.024;2024-03-08T20:19:40;13.73;;;11.05;;
24635;SDS011;12772;49.794;10.024;2024-03-08T20:23:43;13.80;;;9.95;;
24635;SDS011;12772;49.794;10.024;2024-03-08T20:27:45;12.77;;;10.43;;
24635;SDS011;12772;49.794;10.024;2024-03-08T20:31:51;14.60;;;11.35;;
24635;SDS011;12772;49.794;10.024;2024-03-08T20:35:53;13.25;;;11.25;;
24635;SDS011;12772;49.794;10.024;2024-03-08T20:39:55;12.68;;;10.55;;
24635;SDS011;12772;49.794;10.024;2024-03-08T20:43:57;14.57;;;10.90;;
24635;SDS011;12772;49.794;10.024;2024-03-08T20:48:00;13.20;;;9.95;;
24635;SDS011;12772;49.794;10.024;2024-03-08T20:52:03;13.50;;;11.15;;
24635;SDS011;12772;49.794;10.024;2024-03-08T20:56:06;12.27;;;10.43;;
24635;SDS011;12772;49.794;10.024;2024-03-08T21:00:08;14.68;;;10.55;;
24635;SDS011;12772;49.794;10.024;2024-03-08T21:04:19;13.25;;;10.52;;
24635;SDS011;12772;49.794;10.024;2024-03-08T21:08:21;11.27;;;9.73;;
24635;SDS011;12772;49.794;10.024;2024-03-08T21:12:27;12.63;;;10.70;;
24635;SDS011;12772;49.794;10.024;2024-03-08T21:16:29;12.18;;;10.38;;
24635;SDS011;12772;49.794;10.024;2024-03-08T21:20:30;13.13;;;10.05;;
24635;SDS011;12772;49.794;10.024;2024-03-08T21:24:33;14.60;;;11.60;;
24635;SDS011;12772;49.794;10.024;2024-03-08T21:28:35;13.02;;;11.23;;
24635;SDS011;12772;49.794;10.024;2024-03-08T21:32:37;13.27;;;10.88;;
24635;SDS011;12772;49.794;10.024;2024-03-08T21:36:39;13.93;;;11.40;;
24635;SDS011;12772;49.794;10.024;2024-03-08T21:40:44;14.10;;;11.27;;
24635;SDS011;12772;49.794;10.024;2024-03-08T21:44:46;13.43;;;11.07;;
24635;SDS011;12772;49.794;10.024;2024-03-08T21:48:48;13.32;;;10.75;;
24635;SDS011;12772;49.794;10.024;2024-03-08T21:52:50;14.90;;;11.50;;
24635;SDS011;12772;49.794;10.024;2024-03-08T21:56:52;12.25;;;10.50;;
24635;SDS011;12772;49.794;10.024;2024-03-08T22:00:54;13.88;;;11.27;;
24635;SDS011;12772;49.794;10.024;2024-03-08T22:04:56;14.93;;;12.50;;
24635;SDS011;12772;49.794;10.024;2024-03-08T22:08:58;13.18;;;10.95;;
24635;SDS011;12772;49.794;10.024;2024-03-08T22:13:00;13.27;;;11.52;;
24635;SDS011;12772;49.794;10.024;2024-03-08T22:17:02;13.38;;;10.75;;
24635;SDS011;12772;49.794;10.024;2024-03-08T22:21:05;15.18;;;11.57;;
24635;SDS011;12772;49.794;10.024;2024-03-08T22:25:08;15.30;;;11.32;;
24635;SDS011;12772;49.794;10.024;2024-03-08T22:29:11;13.90;;;11.45;;
24635;SDS011;12772;49.794;10.024;2024-03-08T22:33:13;13.10;;;11.32;;
24635;SDS011;12772;49.794;10.024;2024-03-08T22:37:15;12.90;;;11.25;;
24635;SDS011;12772;49.794;10.024;2024-03-08T22:41:17;13.02;;;11.23;;
24635;SDS011;12772;49.794;10.024;2024-03-08T22:45:19;13.70;;;11.45;;
24635;SDS011;12772;49.794;10.024;2024-03-08T22:49:21;13.32;;;10.48;;
24635;SDS011;12772;49.794;10.024;2024-03-08T22:53:23;13.23;;;11.25;;
24635;SDS011;12772;49.794;10.024;2024-03-08T22:57:28;15.88;;;11.38;;
24635;SDS011;12772;49.794;10.024;2024-03-08T23:01:30;12.27;;;10.02;;
24635;SDS011;12772;49.794;10.024;2024-03-08T23:05:34;13.95;;;11.55;;
24635;SDS011;12772;49.794;10.024;2024-03-08T23:09:38;13.82;;;11.23;;
24635;SDS011;12772;49.794;10.024;2024-03-08T23:13:42;13.02;;;10.57;;
24635;SDS011;12772;49.794;10.024;2024-03-08T23:17:46;13.98;;;11.98;;
24635;SDS011;12772;49.794;10.024;2024-03-08T23:21:50;12.60;;;9.93;;
24635;SDS011;12772;49.794;10.024;2024-03-08T23:25:52;13.50;;;11.02;;
24635;SDS011;12772;49.794;10.024;2024-03-08T23:29:54;12.25;;;10.40;;
24635;SDS011;12772;49.794;10.024;2024-03-08T23:33:56;12.80;;;9.70;;
24635;SDS011;12772;49.794;10.024;2024-03-08T23:37:58;11.90;;;10.10;;